sensor_id;sensor_type;location;lat;lon;timestamp;P1;durP1;ratioP1;P2;durP2;ratioP2
70216;SDS011;57608;0.000;0.000;2022-10-23T00:01:21;4.22;;;3.38;;
70216;SDS011;57608;0.000;0.000;2022-10-23T00:03:50;4.50;;;3.35;;
70216;SDS011;57608;0.000;0.000;2022-10-23T00:06:17;4.57;;;3.10;;
70216;SDS011;57608;0.000;0.000;2022-10-23T00:08:44;4.05;;;3.65;;
70216;SDS011;57608;0.000;0.000;2022-10-23T00:11:16;4.60;;;3.28;;
70216;SDS011;57608;0.000;0.000;2022-10-23T00:13:47;4.60;;;3.72;;
70216;SDS011;57608;0.000;0.000;2022-10-23T00:16:17;5.25;;;3.10;;
70216;SDS011;57608;0.000;0.000;2022-10-23T00:18:45;6.32;;;3.45;;
70216;SDS011;57608;0.000;0.000;2022-10-23T00:21:11;4.43;;;3.63;;
70216;SDS011;57608;0.000;0.000;2022-10-23T00:23:46;5.15;;;3.38;;
70216;SDS011;57608;0.000;0.000;2022-10-23T00:26:12;5.00;;;3.60;;
70216;SDS011;57608;0.000;0.000;2022-10-23T00:28:48;4.20;;;3.50;;
70216;SDS011;57608;0.000;0.000;2022-10-23T00:31:15;5.13;;;3.40;;
70216;SDS011;57608;0.000;0.000;2022-10-23T00:33:42;4.22;;;3.60;;
70216;SDS011;57608;0.000;0.000;2022-10-23T00:36:08;4.53;;;3.38;;
70216;SDS011;57608;0.000;0.000;2022-10-23T00:38:36;5.75;;;3.38;;
70216;SDS011;57608;0.000;0.000;2022-10-23T00:41:03;4.30;;;3.30;;
70216;SDS011;57608;0.000;0.000;2022-10-23T00:43:29;4.68;;;3.50;;
70216;SDS011;57608;0.000;0.000;2022-10-23T00:45:56;5.38;;;3.92;;
70216;SDS011;57608;0.000;0.000;2022-10-23T00:48:22;4.22;;;3.35;;
70216;SDS011;57608;0.000;0.000;2022-10-23T00:50:49;4.10;;;3.20;;
70216;SDS011;57608;0.000;0.000;2022-10-23T00:53:23;4.07;;;3.40;;
70216;SDS011;57608;0.000;0.000;2022-10-23T00:55:51;4.47;;;3.55;;
70216;SDS011;57608;0.000;0.000;2022-10-23T00:58:28;4.80;;;3.40;;
70216;SDS011;57608;0.000;0.000;2022-10-23T01:00:54;6.95;;;3.95;;
70216;SDS011;57608;0.000;0.000;2022-10-23T01:03:24;7.50;;;3.92;;
70216;SDS011;57608;0.000;0.000;2022-10-23T01:08:55;4.55;;;3.58;;
70216;SDS011;57608;0.000;0.000;2022-10-23T01:13:58;5.13;;;3.67;;
70216;SDS011;57608;0.000;0.000;2022-10-23T01:22:21;5.35;;;3.60;;
70216;SDS011;57608;0.000;0.000;2022-10-23T01:25:10;4.70;;;3.70;;
70216;SDS011;57608;0.000;0.000;2022-10-23T01:27:41;5.57;;;3.63;;
70216;SDS011;57608;0.000;0.000;2022-10-23T01:30:20;6.32;;;3.60;;
70216;SDS011;57608;0.000;0.000;2022-10-23T01:32:55;4.82;;;3.70;;
70216;SDS011;57608;0.000;0.000;2022-10-23T01:35:27;5.10;;;4.13;;
70216;SDS011;57608;0.000;0.000;2022-10-23T01:38:45;5.53;;;3.70;;
70216;SDS011;57608;0.000;0.000;2022-10-23T01:41:04;6.22;;;4.18;;
70216;SDS011;57608;0.000;0.000;2022-10-23T01:46:33;6.85;;;4.05;;
70216;SDS011;57608;0.000;0.000;2022-10-23T01:49:02;7.25;;;3.75;;
70216;SDS011;57608;0.000;0.000;2022-10-23T01:51:33;4.93;;;3.58;;
70216;SDS011;57608;0.000;0.000;2022-10-23T01:54:05;4.95;;;3.92;;
70216;SDS011;57608;0.000;0.000;2022-10-23T01:56:34;5.23;;;3.77;;
70216;SDS011;57608;0.000;0.000;2022-10-23T02:01:32;5.18;;;3.88;;
70216;SDS011;57608;0.000;0.000;2022-10-23T02:04:00;6.13;;;3.88;;
70216;SDS011;57608;0.000;0.000;2022-10-23T02:06:30;5.30;;;3.65;;
70216;SDS011;57608;0.000;0.000;2022-10-23T02:08:56;7.28;;;3.85;;
70216;SDS011;57608;0.000;0.000;2022-10-23T02:11:21;4.60;;;3.22;;
70216;SDS011;57608;0.000;0.000;2022-10-23T02:19:10;4.97;;;3.75;;
70216;SDS011;57608;0.000;0.000;2022-10-23T02:21:38;4.75;;;3.60;;
70216;SDS011;57608;0.000;0.000;2022-10-23T02:24:12;5.05;;;3.47;;
70216;SDS011;57608;0.000;0.000;2022-10-23T02:26:47;4.80;;;3.65;;
70216;SDS011;57608;0.000;0.000;2022-10-23T02:32:12;4.35;;;3.60;;
70216;SDS011;57608;0.000;0.000;2022-10-23T02:34:39;4.63;;;3.10;;
70216;SDS011;57608;0.000;0.000;2022-10-23T02:37:05;3.85;;;3.15;;
70216;SDS011;57608;0.000;0.000;2022-10-23T02:39:31;4.43;;;3.45;;
70216;SDS011;57608;0.000;0.000;2022-10-23T02:58:20;4.10;;;3.50;;
70216;SDS011;57608;0.000;0.000;2022-10-23T03:00:53;3.70;;;3.15;;
70216;SDS011;57608;0.000;0.000;2022-10-23T03:03:29;3.92;;;3.33;;
70216;SDS011;57608;0.000;0.000;2022-10-23T03:05:59;5.18;;;3.70;;
70216;SDS011;57608;0.000;0.000;2022-10-23T03:08:27;4.45;;;3.38;;
70216;SDS011;57608;0.000;0.000;2022-10-23T03:10:53;4.28;;;3.40;;
70216;SDS011;57608;0.000;0.000;2022-10-23T03:13:18;4.97;;;3.95;;
70216;SDS011;57608;0.000;0.000;2022-10-23T03:15:44;4.18;;;3.60;;
70216;SDS011;57608;0.000;0.000;2022-10-23T03:18:09;5.72;;;4.20;;
70216;SDS011;57608;0.000;0.000;2022-10-23T03:20:35;5.53;;;4.05;;
70216;SDS011;57608;0.000;0.000;2022-10-23T03:23:02;5.53;;;4.30;;
70216;SDS011;57608;0.000;0.000;2022-10-23T03:25:31;6.97;;;4.63;;
70216;SDS011;57608;0.000;0.000;2022-10-23T03:27:58;5.25;;;4.13;;
70216;SDS011;57608;0.000;0.000;2022-10-23T03:30:24;5.78;;;4.50;;
70216;SDS011;57608;0.000;0.000;2022-10-23T03:32:57;5.95;;;4.15;;
70216;SDS011;57608;0.000;0.000;2022-10-23T03:35:22;5.50;;;4.30;;
70216;SDS011;57608;0.000;0.000;2022-10-23T03:37:48;4.97;;;4.07;;
70216;SDS011;57608;0.000;0.000;2022-10-23T03:40:16;4.80;;;4.18;;
70216;SDS011;57608;0.000;0.000;2022-10-23T03:42:41;5.57;;;3.92;;
70216;SDS011;57608;0.000;0.000;2022-10-23T03:45:09;5.55;;;4.18;;
70216;SDS011;57608;0.000;0.000;2022-10-23T03:47:34;6.03;;;4.15;;
70216;SDS011;57608;0.000;0.000;2022-10-23T03:50:05;5.75;;;4.55;;
70216;SDS011;57608;0.000;0.000;2022-10-23T03:52:41;6.03;;;4.22;;
70216;SDS011;57608;0.000;0.000;2022-10-23T03:55:15;4.28;;;3.65;;
70216;SDS011;57608;0.000;0.000;2022-10-23T03:57:42;6.15;;;3.95;;
70216;SDS011;57608;0.000;0.000;2022-10-23T04:00:07;4.95;;;4.13;;
70216;SDS011;57608;0.000;0.000;2022-10-23T04:02:34;5.88;;;4.68;;
70216;SDS011;57608;0.000;0.000;2022-10-23T04:04:59;4.93;;;3.95;;
70216;SDS011;57608;0.000;0.000;2022-10-23T04:07:27;5.80;;;4.38;;
70216;SDS011;57608;0.000;0.000;2022-10-23T04:09:55;5.90;;;4.30;;
70216;SDS011;57608;0.000;0.000;2022-10-23T04:12:23;7.43;;;4.50;;
70216;SDS011;57608;0.000;0.000;2022-10-23T04:14:49;6.53;;;4.00;;
70216;SDS011;57608;0.000;0.000;2022-10-23T04:17:17;5.25;;;4.20;;
70216;SDS011;57608;0.000;0.000;2022-10-23T04:19:43;5.07;;;3.78;;
70216;SDS011;57608;0.000;0.000;2022-10-23T04:22:08;4.75;;;4.10;;
70216;SDS011;57608;0.000;0.000;2022-10-23T04:24:33;5.70;;;4.07;;
70216;SDS011;57608;0.000;0.000;2022-10-23T04:26:59;5.22;;;3.83;;
70216;SDS011;57608;0.000;0.000;2022-10-23T04:29:24;4.93;;;4.30;;
70216;SDS011;57608;0.000;0.000;2022-10-23T04:31:50;6.65;;;4.70;;
70216;SDS011;57608;0.000;0.000;2022-10-23T04:34:18;6.18;;;4.22;;
70216;SDS011;57608;0.000;0.000;2022-10-23T04:36:44;6.35;;;4.45;;
70216;SDS011;57608;0.000;0.000;2022-10-23T04:39:11;5.82;;;4.47;;
70216;SDS011;57608;0.000;0.000;2022-10-23T04:41:37;5.60;;;4.53;;
70216;SDS011;57608;0.000;0.000;2022-10-23T04:44:13;5.32;;;4.20;;
70216;SDS011;57608;0.000;0.000;2022-10-23T04:46:43;5.20;;;4.25;;
70216;SDS011;57608;0.000;0.000;2022-10-23T04:49:09;6.10;;;4.68;;
70216;SDS011;57608;0.000;0.000;2022-10-23T04:51:34;7.93;;;4.85;;
70216;SDS011;57608;0.000;0.000;2022-10-23T04:54:02;6.93;;;4.65;;
70216;SDS011;57608;0.000;0.000;2022-10-23T04:56:28;6.63;;;4.90;;
70216;SDS011;57608;0.000;0.000;2022-10-23T04:58:53;10.45;;;4.97;;
70216;SDS011;57608;0.000;0.000;2022-10-23T05:01:18;6.60;;;4.93;;
70216;SDS011;57608;0.000;0.000;2022-10-23T05:03:44;6.53;;;4.72;;
70216;SDS011;57608;0.000;0.000;2022-10-23T05:06:09;5.80;;;5.15;;
70216;SDS011;57608;0.000;0.000;2022-10-23T05:08:35;7.38;;;5.32;;
70216;SDS011;57608;0.000;0.000;2022-10-23T05:11:06;5.70;;;4.90;;
70216;SDS011;57608;0.000;0.000;2022-10-23T05:13:32;5.80;;;4.50;;
70216;SDS011;57608;0.000;0.000;2022-10-23T05:15:59;7.20;;;5.13;;
70216;SDS011;57608;0.000;0.000;2022-10-23T05:18:29;5.20;;;4.28;;
70216;SDS011;57608;0.000;0.000;2022-10-23T05:21:12;6.38;;;4.53;;
70216;SDS011;57608;0.000;0.000;2022-10-23T05:23:51;5.72;;;4.60;;
70216;SDS011;57608;0.000;0.000;2022-10-23T05:26:18;5.28;;;4.40;;
70216;SDS011;57608;0.000;0.000;2022-10-23T05:28:43;5.13;;;4.13;;
70216;SDS011;57608;0.000;0.000;2022-10-23T05:31:11;5.65;;;4.38;;
70216;SDS011;57608;0.000;0.000;2022-10-23T05:33:37;5.38;;;4.28;;
70216;SDS011;57608;0.000;0.000;2022-10-23T05:36:03;4.80;;;4.07;;
70216;SDS011;57608;0.000;0.000;2022-10-23T05:38:31;5.65;;;4.30;;
70216;SDS011;57608;0.000;0.000;2022-10-23T05:41:00;5.28;;;3.67;;
70216;SDS011;57608;0.000;0.000;2022-10-23T05:43:28;6.00;;;4.07;;
70216;SDS011;57608;0.000;0.000;2022-10-23T05:45:55;6.30;;;5.20;;
70216;SDS011;57608;0.000;0.000;2022-10-23T05:48:24;5.93;;;4.45;;
70216;SDS011;57608;0.000;0.000;2022-10-23T05:50:52;6.35;;;5.57;;
70216;SDS011;57608;0.000;0.000;2022-10-23T05:53:20;6.00;;;4.75;;
70216;SDS011;57608;0.000;0.000;2022-10-23T05:55:46;7.28;;;5.10;;
70216;SDS011;57608;0.000;0.000;2022-10-23T05:58:11;7.15;;;5.32;;
70216;SDS011;57608;0.000;0.000;2022-10-23T06:00:39;7.32;;;5.50;;
70216;SDS011;57608;0.000;0.000;2022-10-23T06:03:04;6.88;;;5.35;;
70216;SDS011;57608;0.000;0.000;2022-10-23T06:05:30;8.45;;;5.55;;
70216;SDS011;57608;0.000;0.000;2022-10-23T06:07:56;10.25;;;6.85;;
70216;SDS011;57608;0.000;0.000;2022-10-23T06:10:22;17.77;;;12.25;;
70216;SDS011;57608;0.000;0.000;2022-10-23T06:12:47;9.02;;;7.35;;
70216;SDS011;57608;0.000;0.000;2022-10-23T06:15:16;7.85;;;6.43;;
70216;SDS011;57608;0.000;0.000;2022-10-23T06:17:44;10.32;;;5.95;;
70216;SDS011;57608;0.000;0.000;2022-10-23T06:20:09;9.50;;;5.93;;
70216;SDS011;57608;0.000;0.000;2022-10-23T06:22:37;8.00;;;5.93;;
70216;SDS011;57608;0.000;0.000;2022-10-23T06:25:05;7.43;;;5.65;;
70216;SDS011;57608;0.000;0.000;2022-10-23T06:27:31;10.07;;;5.78;;
70216;SDS011;57608;0.000;0.000;2022-10-23T06:29:56;8.25;;;5.57;;
70216;SDS011;57608;0.000;0.000;2022-10-23T06:32:31;8.25;;;5.43;;
70216;SDS011;57608;0.000;0.000;2022-10-23T06:34:56;9.02;;;5.70;;
70216;SDS011;57608;0.000;0.000;2022-10-23T06:37:22;7.13;;;5.45;;
70216;SDS011;57608;0.000;0.000;2022-10-23T06:39:47;7.95;;;5.50;;
70216;SDS011;57608;0.000;0.000;2022-10-23T06:42:15;9.75;;;8.07;;
70216;SDS011;57608;0.000;0.000;2022-10-23T06:44:40;9.38;;;7.97;;
70216;SDS011;57608;0.000;0.000;2022-10-23T06:47:06;11.40;;;7.10;;
70216;SDS011;57608;0.000;0.000;2022-10-23T06:49:34;8.63;;;6.60;;
70216;SDS011;57608;0.000;0.000;2022-10-23T06:52:02;19.85;;;14.70;;
70216;SDS011;57608;0.000;0.000;2022-10-23T06:54:27;18.48;;;13.30;;
70216;SDS011;57608;0.000;0.000;2022-10-23T06:56:53;10.40;;;8.93;;
70216;SDS011;57608;0.000;0.000;2022-10-23T06:59:20;11.70;;;8.20;;
70216;SDS011;57608;0.000;0.000;2022-10-23T07:01:48;10.45;;;7.50;;
70216;SDS011;57608;0.000;0.000;2022-10-23T07:04:17;10.20;;;7.40;;
70216;SDS011;57608;0.000;0.000;2022-10-23T07:06:42;11.40;;;6.93;;
70216;SDS011;57608;0.000;0.000;2022-10-23T07:09:08;10.02;;;7.13;;
70216;SDS011;57608;0.000;0.000;2022-10-23T07:11:34;13.77;;;10.82;;
70216;SDS011;57608;0.000;0.000;2022-10-23T07:14:00;34.55;;;26.58;;
70216;SDS011;57608;0.000;0.000;2022-10-23T07:16:26;19.10;;;17.00;;
70216;SDS011;57608;0.000;0.000;2022-10-23T07:18:57;14.23;;;10.82;;
70216;SDS011;57608;0.000;0.000;2022-10-23T07:21:34;32.95;;;25.33;;
70216;SDS011;57608;0.000;0.000;2022-10-23T07:24:00;20.40;;;16.88;;
70216;SDS011;57608;0.000;0.000;2022-10-23T07:26:28;15.77;;;11.15;;
70216;SDS011;57608;0.000;0.000;2022-10-23T07:28:59;25.00;;;20.05;;
70216;SDS011;57608;0.000;0.000;2022-10-23T07:31:25;21.08;;;16.50;;
70216;SDS011;57608;0.000;0.000;2022-10-23T07:33:51;13.82;;;10.93;;
70216;SDS011;57608;0.000;0.000;2022-10-23T07:36:17;11.82;;;10.25;;
70216;SDS011;57608;0.000;0.000;2022-10-23T07:38:45;13.13;;;8.65;;
70216;SDS011;57608;0.000;0.000;2022-10-23T07:41:14;20.95;;;16.67;;
70216;SDS011;57608;0.000;0.000;2022-10-23T07:43:39;20.95;;;15.18;;
70216;SDS011;57608;0.000;0.000;2022-10-23T07:46:08;14.15;;;11.50;;
70216;SDS011;57608;0.000;0.000;2022-10-23T07:48:34;10.23;;;8.93;;
70216;SDS011;57608;0.000;0.000;2022-10-23T07:51:01;9.82;;;8.55;;
70216;SDS011;57608;0.000;0.000;2022-10-23T07:53:32;10.32;;;8.02;;
70216;SDS011;57608;0.000;0.000;2022-10-23T07:56:01;16.25;;;13.05;;
70216;SDS011;57608;0.000;0.000;2022-10-23T07:58:29;16.17;;;12.27;;
70216;SDS011;57608;0.000;0.000;2022-10-23T08:03:27;11.52;;;8.80;;
70216;SDS011;57608;0.000;0.000;2022-10-23T08:05:58;12.05;;;8.05;;
70216;SDS011;57608;0.000;0.000;2022-10-23T08:08:31;17.08;;;12.30;;
70216;SDS011;57608;0.000;0.000;2022-10-23T08:10:57;19.58;;;14.65;;
70216;SDS011;57608;0.000;0.000;2022-10-23T08:13:22;15.40;;;10.30;;
70216;SDS011;57608;0.000;0.000;2022-10-23T08:15:48;12.05;;;9.85;;
70216;SDS011;57608;0.000;0.000;2022-10-23T08:18:15;21.52;;;14.77;;
70216;SDS011;57608;0.000;0.000;2022-10-23T08:20:42;26.80;;;20.63;;
70216;SDS011;57608;0.000;0.000;2022-10-23T08:23:09;17.00;;;12.02;;
70216;SDS011;57608;0.000;0.000;2022-10-23T08:25:40;15.57;;;10.65;;
70216;SDS011;57608;0.000;0.000;2022-10-23T08:28:06;14.88;;;9.40;;
70216;SDS011;57608;0.000;0.000;2022-10-23T08:30:32;15.93;;;9.45;;
70216;SDS011;57608;0.000;0.000;2022-10-23T08:33:02;20.75;;;17.20;;
70216;SDS011;57608;0.000;0.000;2022-10-23T08:35:36;18.20;;;15.40;;
70216;SDS011;57608;0.000;0.000;2022-10-23T08:38:05;18.08;;;12.75;;
70216;SDS011;57608;0.000;0.000;2022-10-23T08:40:31;14.73;;;10.50;;
70216;SDS011;57608;0.000;0.000;2022-10-23T08:43:05;16.40;;;10.45;;
70216;SDS011;57608;0.000;0.000;2022-10-23T08:45:39;15.30;;;10.05;;
70216;SDS011;57608;0.000;0.000;2022-10-23T08:48:55;15.20;;;10.48;;
70216;SDS011;57608;0.000;0.000;2022-10-23T08:51:21;14.10;;;8.80;;
70216;SDS011;57608;0.000;0.000;2022-10-23T08:54:02;12.18;;;8.45;;
70216;SDS011;57608;0.000;0.000;2022-10-23T08:56:37;14.13;;;8.68;;
70216;SDS011;57608;0.000;0.000;2022-10-23T09:02:07;13.48;;;9.63;;
70216;SDS011;57608;0.000;0.000;2022-10-23T09:04:44;16.15;;;9.63;;
70216;SDS011;57608;0.000;0.000;2022-10-23T09:12:37;40.28;;;27.50;;
70216;SDS011;57608;0.000;0.000;2022-10-23T09:17:32;20.38;;;14.27;;
70216;SDS011;57608;0.000;0.000;2022-10-23T09:22:56;17.10;;;10.88;;
70216;SDS011;57608;0.000;0.000;2022-10-23T09:25:27;16.00;;;10.43;;
70216;SDS011;57608;0.000;0.000;2022-10-23T09:27:59;16.75;;;10.90;;
70216;SDS011;57608;0.000;0.000;2022-10-23T09:30:30;15.90;;;9.90;;
70216;SDS011;57608;0.000;0.000;2022-10-23T09:33:17;16.55;;;9.73;;
70216;SDS011;57608;0.000;0.000;2022-10-23T09:35:54;14.35;;;9.38;;
70216;SDS011;57608;0.000;0.000;2022-10-23T09:39:19;16.10;;;9.32;;
70216;SDS011;57608;0.000;0.000;2022-10-23T09:46:52;15.88;;;9.68;;
70216;SDS011;57608;0.000;0.000;2022-10-23T09:49:21;14.40;;;9.02;;
70216;SDS011;57608;0.000;0.000;2022-10-23T09:54:36;16.17;;;9.93;;
70216;SDS011;57608;0.000;0.000;2022-10-23T10:02:38;25.00;;;18.55;;
70216;SDS011;57608;0.000;0.000;2022-10-23T10:05:21;29.15;;;19.33;;
70216;SDS011;57608;0.000;0.000;2022-10-23T10:10:59;30.83;;;21.30;;
70216;SDS011;57608;0.000;0.000;2022-10-23T10:16:03;21.38;;;13.15;;
70216;SDS011;57608;0.000;0.000;2022-10-23T10:21:09;18.83;;;11.43;;
70216;SDS011;57608;0.000;0.000;2022-10-23T10:23:47;18.38;;;10.95;;
70216;SDS011;57608;0.000;0.000;2022-10-23T10:31:47;16.00;;;10.10;;
70216;SDS011;57608;0.000;0.000;2022-10-23T10:37:30;16.65;;;10.02;;
70216;SDS011;57608;0.000;0.000;2022-10-23T10:40:23;15.70;;;9.38;;
70216;SDS011;57608;0.000;0.000;2022-10-23T10:45:54;15.35;;;9.60;;
70216;SDS011;57608;0.000;0.000;2022-10-23T10:56:43;17.88;;;10.45;;
70216;SDS011;57608;0.000;0.000;2022-10-23T11:01:41;17.30;;;10.02;;
70216;SDS011;57608;0.000;0.000;2022-10-23T11:04:17;14.15;;;9.57;;
70216;SDS011;57608;0.000;0.000;2022-10-23T11:06:56;15.90;;;9.50;;
70216;SDS011;57608;0.000;0.000;2022-10-23T11:09:28;15.57;;;10.23;;
70216;SDS011;57608;0.000;0.000;2022-10-23T11:11:54;14.18;;;9.80;;
70216;SDS011;57608;0.000;0.000;2022-10-23T11:14:28;16.05;;;9.38;;
70216;SDS011;57608;0.000;0.000;2022-10-23T11:17:02;18.10;;;10.35;;
70216;SDS011;57608;0.000;0.000;2022-10-23T11:36:56;13.88;;;9.23;;
70216;SDS011;57608;0.000;0.000;2022-10-23T11:39:29;13.85;;;7.95;;
70216;SDS011;57608;0.000;0.000;2022-10-23T11:41:57;11.77;;;8.43;;
70216;SDS011;57608;0.000;0.000;2022-10-23T11:44:39;12.88;;;8.90;;
70216;SDS011;57608;0.000;0.000;2022-10-23T11:47:23;14.07;;;9.05;;
70216;SDS011;57608;0.000;0.000;2022-10-23T11:49:49;12.73;;;8.88;;
70216;SDS011;57608;0.000;0.000;2022-10-23T11:55:02;15.25;;;9.07;;
70216;SDS011;57608;0.000;0.000;2022-10-23T11:57:39;13.48;;;8.35;;
70216;SDS011;57608;0.000;0.000;2022-10-23T12:00:17;15.48;;;9.50;;
70216;SDS011;57608;0.000;0.000;2022-10-23T12:02:48;13.88;;;8.60;;
70216;SDS011;57608;0.000;0.000;2022-10-23T12:08:18;13.88;;;8.90;;
70216;SDS011;57608;0.000;0.000;2022-10-23T12:15:57;11.60;;;8.32;;
70216;SDS011;57608;0.000;0.000;2022-10-23T12:18:25;12.80;;;9.05;;
70216;SDS011;57608;0.000;0.000;2022-10-23T12:20:55;11.77;;;8.65;;
70216;SDS011;57608;0.000;0.000;2022-10-23T12:33:52;13.45;;;8.98;;
70216;SDS011;57608;0.000;0.000;2022-10-23T12:39:25;14.77;;;9.63;;
70216;SDS011;57608;0.000;0.000;2022-10-23T12:41:55;12.13;;;9.15;;
70216;SDS011;57608;0.000;0.000;2022-10-23T12:44:22;13.70;;;9.25;;
70216;SDS011;57608;0.000;0.000;2022-10-23T12:46:58;13.30;;;9.35;;
70216;SDS011;57608;0.000;0.000;2022-10-23T12:49:28;14.00;;;9.35;;
70216;SDS011;57608;0.000;0.000;2022-10-23T12:54:32;15.63;;;10.37;;
70216;SDS011;57608;0.000;0.000;2022-10-23T12:57:11;12.75;;;9.38;;
70216;SDS011;57608;0.000;0.000;2022-10-23T12:59:43;13.98;;;9.70;;
70216;SDS011;57608;0.000;0.000;2022-10-23T13:02:12;15.85;;;10.00;;
70216;SDS011;57608;0.000;0.000;2022-10-23T13:05:01;13.07;;;9.07;;
70216;SDS011;57608;0.000;0.000;2022-10-23T13:07:32;14.52;;;9.10;;
70216;SDS011;57608;0.000;0.000;2022-10-23T13:10:09;12.88;;;9.30;;
70216;SDS011;57608;0.000;0.000;2022-10-23T13:12:42;15.20;;;9.52;;
70216;SDS011;57608;0.000;0.000;2022-10-23T13:15:18;12.55;;;9.25;;
70216;SDS011;57608;0.000;0.000;2022-10-23T13:20:32;12.07;;;9.32;;
70216;SDS011;57608;0.000;0.000;2022-10-23T13:23:07;12.63;;;8.80;;
70216;SDS011;57608;0.000;0.000;2022-10-23T13:25:36;13.95;;;9.73;;
70216;SDS011;57608;0.000;0.000;2022-10-23T13:30:32;12.27;;;9.38;;
70216;SDS011;57608;0.000;0.000;2022-10-23T13:35:37;15.32;;;9.65;;
70216;SDS011;57608;0.000;0.000;2022-10-23T13:38:06;16.38;;;9.98;;
70216;SDS011;57608;0.000;0.000;2022-10-23T13:40:37;13.57;;;9.20;;
70216;SDS011;57608;0.000;0.000;2022-10-23T13:43:04;14.60;;;9.50;;
70216;SDS011;57608;0.000;0.000;2022-10-23T13:45:39;14.30;;;9.18;;
70216;SDS011;57608;0.000;0.000;2022-10-23T13:48:08;12.55;;;8.23;;
70216;SDS011;57608;0.000;0.000;2022-10-23T13:50:40;13.98;;;9.07;;
70216;SDS011;57608;0.000;0.000;2022-10-23T13:53:15;13.05;;;8.88;;
70216;SDS011;57608;0.000;0.000;2022-10-23T13:55:42;13.30;;;8.98;;
70216;SDS011;57608;0.000;0.000;2022-10-23T13:58:13;13.82;;;8.90;;
70216;SDS011;57608;0.000;0.000;2022-10-23T14:00:38;15.07;;;8.38;;
70216;SDS011;57608;0.000;0.000;2022-10-23T14:03:04;13.60;;;8.95;;
70216;SDS011;57608;0.000;0.000;2022-10-23T14:05:32;12.15;;;8.45;;
70216;SDS011;57608;0.000;0.000;2022-10-23T14:07:58;14.25;;;8.50;;
70216;SDS011;57608;0.000;0.000;2022-10-23T14:10:23;11.07;;;8.02;;
70216;SDS011;57608;0.000;0.000;2022-10-23T14:12:49;12.27;;;7.53;;
70216;SDS011;57608;0.000;0.000;2022-10-23T14:15:19;9.90;;;7.65;;
70216;SDS011;57608;0.000;0.000;2022-10-23T14:17:45;11.27;;;7.88;;
70216;SDS011;57608;0.000;0.000;2022-10-23T14:20:11;10.65;;;7.80;;
70216;SDS011;57608;0.000;0.000;2022-10-23T14:22:39;10.50;;;7.40;;
70216;SDS011;57608;0.000;0.000;2022-10-23T14:25:05;8.98;;;7.05;;
70216;SDS011;57608;0.000;0.000;2022-10-23T14:27:30;9.52;;;7.03;;
70216;SDS011;57608;0.000;0.000;2022-10-23T14:30:01;10.30;;;7.45;;
70216;SDS011;57608;0.000;0.000;2022-10-23T14:32:28;10.10;;;6.65;;
70216;SDS011;57608;0.000;0.000;2022-10-23T14:34:54;10.75;;;7.90;;
70216;SDS011;57608;0.000;0.000;2022-10-23T14:37:19;8.27;;;6.25;;
70216;SDS011;57608;0.000;0.000;2022-10-23T14:39:45;9.70;;;6.65;;
70216;SDS011;57608;0.000;0.000;2022-10-23T14:42:12;9.05;;;6.25;;
70216;SDS011;57608;0.000;0.000;2022-10-23T14:44:38;8.90;;;6.82;;
70216;SDS011;57608;0.000;0.000;2022-10-23T14:47:04;7.50;;;6.47;;
70216;SDS011;57608;0.000;0.000;2022-10-23T14:49:31;10.35;;;7.13;;
70216;SDS011;57608;0.000;0.000;2022-10-23T14:51:59;8.40;;;6.70;;
70216;SDS011;57608;0.000;0.000;2022-10-23T14:54:25;8.20;;;6.20;;
70216;SDS011;57608;0.000;0.000;2022-10-23T14:56:52;9.15;;;6.32;;
70216;SDS011;57608;0.000;0.000;2022-10-23T14:59:17;8.30;;;6.40;;
70216;SDS011;57608;0.000;0.000;2022-10-23T15:01:43;8.63;;;6.15;;
70216;SDS011;57608;0.000;0.000;2022-10-23T15:04:09;8.35;;;5.72;;
70216;SDS011;57608;0.000;0.000;2022-10-23T15:06:52;8.15;;;6.50;;
70216;SDS011;57608;0.000;0.000;2022-10-23T15:09:18;8.85;;;6.85;;
70216;SDS011;57608;0.000;0.000;2022-10-23T15:11:44;9.07;;;6.07;;
70216;SDS011;57608;0.000;0.000;2022-10-23T15:14:10;9.93;;;6.68;;
70216;SDS011;57608;0.000;0.000;2022-10-23T15:16:36;8.57;;;6.57;;
70216;SDS011;57608;0.000;0.000;2022-10-23T15:19:08;8.90;;;6.68;;
70216;SDS011;57608;0.000;0.000;2022-10-23T15:21:35;10.10;;;7.25;;
70216;SDS011;57608;0.000;0.000;2022-10-23T15:24:10;8.45;;;6.50;;
70216;SDS011;57608;0.000;0.000;2022-10-23T15:26:38;8.88;;;6.45;;
70216;SDS011;57608;0.000;0.000;2022-10-23T15:29:05;10.43;;;7.60;;
70216;SDS011;57608;0.000;0.000;2022-10-23T15:34:08;10.02;;;7.53;;
70216;SDS011;57608;0.000;0.000;2022-10-23T15:36:42;8.60;;;6.65;;
70216;SDS011;57608;0.000;0.000;2022-10-23T15:39:12;10.23;;;7.45;;
70216;SDS011;57608;0.000;0.000;2022-10-23T15:44:05;8.82;;;6.68;;
70216;SDS011;57608;0.000;0.000;2022-10-23T15:46:32;8.93;;;6.47;;
70216;SDS011;57608;0.000;0.000;2022-10-23T15:48:59;7.78;;;6.32;;
70216;SDS011;57608;0.000;0.000;2022-10-23T15:51:24;9.45;;;6.78;;
70216;SDS011;57608;0.000;0.000;2022-10-23T15:53:58;9.85;;;6.82;;
70216;SDS011;57608;0.000;0.000;2022-10-23T15:56:24;8.50;;;6.82;;
70216;SDS011;57608;0.000;0.000;2022-10-23T15:58:49;8.77;;;6.03;;
70216;SDS011;57608;0.000;0.000;2022-10-23T16:01:14;8.60;;;6.75;;
70216;SDS011;57608;0.000;0.000;2022-10-23T16:03:40;8.20;;;6.45;;
70216;SDS011;57608;0.000;0.000;2022-10-23T16:06:10;8.40;;;6.35;;
70216;SDS011;57608;0.000;0.000;2022-10-23T16:08:40;6.97;;;5.95;;
70216;SDS011;57608;0.000;0.000;2022-10-23T16:11:18;8.23;;;5.93;;
70216;SDS011;57608;0.000;0.000;2022-10-23T16:13:51;8.38;;;6.57;;
70216;SDS011;57608;0.000;0.000;2022-10-23T16:16:26;7.93;;;5.78;;
70216;SDS011;57608;0.000;0.000;2022-10-23T16:18:56;9.10;;;6.55;;
70216;SDS011;57608;0.000;0.000;2022-10-23T16:21:25;7.72;;;5.70;;
70216;SDS011;57608;0.000;0.000;2022-10-23T16:23:53;7.53;;;5.70;;
70216;SDS011;57608;0.000;0.000;2022-10-23T16:26:20;8.48;;;6.15;;
70216;SDS011;57608;0.000;0.000;2022-10-23T16:28:46;7.40;;;5.32;;
70216;SDS011;57608;0.000;0.000;2022-10-23T16:31:15;7.25;;;5.63;;
70216;SDS011;57608;0.000;0.000;2022-10-23T16:33:44;7.38;;;5.80;;
70216;SDS011;57608;0.000;0.000;2022-10-23T16:36:10;7.95;;;5.75;;
70216;SDS011;57608;0.000;0.000;2022-10-23T16:38:36;6.45;;;5.38;;
70216;SDS011;57608;0.000;0.000;2022-10-23T16:41:10;7.70;;;5.40;;
70216;SDS011;57608;0.000;0.000;2022-10-23T16:43:39;7.47;;;4.93;;
70216;SDS011;57608;0.000;0.000;2022-10-23T16:46:05;6.88;;;5.10;;
70216;SDS011;57608;0.000;0.000;2022-10-23T16:48:38;6.93;;;5.00;;
70216;SDS011;57608;0.000;0.000;2022-10-23T16:51:07;7.05;;;4.93;;
70216;SDS011;57608;0.000;0.000;2022-10-23T16:53:38;7.55;;;4.80;;
70216;SDS011;57608;0.000;0.000;2022-10-23T16:56:05;6.70;;;5.53;;
70216;SDS011;57608;0.000;0.000;2022-10-23T16:58:40;7.13;;;5.20;;
70216;SDS011;57608;0.000;0.000;2022-10-23T17:01:18;5.57;;;4.47;;
70216;SDS011;57608;0.000;0.000;2022-10-23T17:03:46;9.07;;;5.07;;
70216;SDS011;57608;0.000;0.000;2022-10-23T17:06:30;48.83;;;32.13;;
70216;SDS011;57608;0.000;0.000;2022-10-23T17:08:57;69.43;;;47.67;;
70216;SDS011;57608;0.000;0.000;2022-10-23T17:11:34;19.88;;;14.48;;
70216;SDS011;57608;0.000;0.000;2022-10-23T17:14:02;13.93;;;10.23;;
70216;SDS011;57608;0.000;0.000;2022-10-23T17:16:29;9.75;;;8.10;;
70216;SDS011;57608;0.000;0.000;2022-10-23T17:18:55;8.43;;;6.78;;
70216;SDS011;57608;0.000;0.000;2022-10-23T17:21:21;7.97;;;6.28;;
70216;SDS011;57608;0.000;0.000;2022-10-23T17:23:50;7.03;;;6.05;;
70216;SDS011;57608;0.000;0.000;2022-10-23T17:26:20;22.93;;;16.77;;
70216;SDS011;57608;0.000;0.000;2022-10-23T17:28:46;17.55;;;14.45;;
70216;SDS011;57608;0.000;0.000;2022-10-23T17:31:23;12.75;;;10.35;;
70216;SDS011;57608;0.000;0.000;2022-10-23T17:33:54;17.50;;;14.52;;
70216;SDS011;57608;0.000;0.000;2022-10-23T17:36:22;11.77;;;10.38;;
70216;SDS011;57608;0.000;0.000;2022-10-23T17:38:54;9.63;;;8.35;;
70216;SDS011;57608;0.000;0.000;2022-10-23T17:41:20;8.73;;;7.53;;
70216;SDS011;57608;0.000;0.000;2022-10-23T17:43:47;7.10;;;6.07;;
70216;SDS011;57608;0.000;0.000;2022-10-23T17:46:14;7.13;;;5.95;;